createdAt,value
2022-09-11T00:01:23.036Z,22.67
2022-09-11T00:03:49.931Z,23.77
2022-09-11T00:06:28.914Z,19.02
2022-09-11T00:09:01.101Z,22.40
2022-09-11T00:11:40.306Z,21.88
2022-09-11T00:14:08.462Z,23.48
2022-09-11T00:16:39.767Z,23.05
2022-09-11T00:19:10.655Z,26.13
2022-09-11T00:21:37.476Z,25.50
2022-09-11T00:24:05.330Z,25.77
2022-09-11T00:26:32.238Z,34.53
2022-09-11T00:29:01.729Z,26.52
2022-09-11T00:31:30.036Z,24.52
2022-09-11T00:33:57.259Z,24.08
2022-09-11T00:36:27.105Z,25.08
2022-09-11T00:38:54.964Z,26.48
2022-09-11T00:41:36.763Z,25.10
2022-09-11T00:44:28.250Z,23.67
2022-09-11T00:46:58.326Z,22.05
2022-09-11T00:49:51.843Z,23.33
2022-09-11T00:52:30.177Z,23.73
2022-09-11T00:55:14.552Z,23.35
2022-09-11T00:57:49.721Z,20.85
2022-09-11T01:00:16.510Z,20.42
2022-09-11T01:02:47.068Z,22.48
2022-09-11T01:05:13.908Z,17.23
2022-09-11T01:07:41.799Z,22.23
2022-09-11T01:10:10.584Z,22.23
2022-09-11T01:12:49.199Z,22.48
2022-09-11T01:15:29.267Z,22.25
2022-09-11T01:18:16.771Z,24.55
2022-09-11T01:20:49.445Z,22.58
2022-09-11T01:23:34.529Z,22.88
2022-09-11T01:26:16.340Z,21.10
2022-09-11T01:29:18.424Z,18.05
2022-09-11T01:31:59.256Z,25.98
2022-09-11T01:34:29.600Z,23.95
2022-09-11T01:37:14.272Z,21.45
2022-09-11T01:39:46.583Z,20.48
2022-09-11T01:42:21.484Z,18.67
2022-09-11T01:44:57.558Z,22.25
2022-09-11T01:47:26.097Z,20.05
2022-09-11T01:50:03.545Z,20.90
2022-09-11T01:52:43.163Z,16.73
2022-09-11T01:55:24.046Z,22.50
2022-09-11T01:57:58.646Z,14.27
2022-09-11T02:03:09.220Z,20.30
2022-09-11T02:05:46.204Z,19.75
2022-09-11T02:08:42.040Z,19.80
2022-09-11T02:11:14.131Z,23.67
2022-09-11T02:14:13.410Z,18.88
2022-09-11T02:17:03.383Z,21.10
2022-09-11T02:19:31.309Z,16.40
2022-09-11T02:21:58.966Z,18.75
2022-09-11T02:24:27.414Z,15.85
2022-09-11T02:27:10.864Z,20.00
2022-09-11T02:29:39.330Z,16.55
2022-09-11T02:32:07.071Z,19.88
2022-09-11T02:34:36.302Z,19.33
2022-09-11T02:37:09.151Z,19.42
2022-09-11T02:40:13.683Z,17.33
2022-09-11T02:43:01.904Z,17.67
2022-09-11T02:45:41.398Z,17.80
2022-09-11T02:48:11.328Z,17.42
2022-09-11T02:50:46.960Z,16.23
2022-09-11T02:53:43.747Z,18.73
2022-09-11T02:56:37.958Z,18.55
2022-09-11T02:59:31.325Z,14.45
2022-09-11T03:02:02.102Z,16.65
2022-09-11T03:04:29.707Z,17.38
2022-09-11T03:06:58.693Z,16.08
2022-09-11T03:09:25.582Z,19.77
2022-09-11T03:11:52.398Z,13.88
2022-09-11T03:14:19.148Z,14.35
2022-09-11T03:16:46.024Z,19.52
2022-09-11T03:19:13.137Z,15.77
2022-09-11T03:21:39.976Z,14.52
2022-09-11T03:24:08.744Z,14.23
2022-09-11T03:26:36.671Z,14.05
2022-09-11T03:29:04.176Z,13.50
2022-09-11T03:31:31.535Z,13.95
2022-09-11T03:33:58.376Z,13.27
2022-09-11T03:36:25.824Z,14.00
2022-09-11T03:38:52.716Z,15.57
2022-09-11T03:41:19.476Z,15.88
2022-09-11T03:43:46.347Z,15.88
2022-09-11T03:46:13.159Z,13.70
2022-09-11T03:48:40.520Z,16.45
2022-09-11T03:51:07.300Z,12.88
2022-09-11T03:53:34.853Z,16.15
2022-09-11T03:56:03.947Z,14.20
2022-09-11T03:58:30.901Z,16.27
2022-09-11T04:00:57.811Z,12.63
2022-09-11T04:03:24.737Z,11.50
2022-09-11T04:06:02.741Z,15.88
2022-09-11T04:08:33.743Z,13.52
2022-09-11T04:11:04.124Z,13.70
2022-09-11T04:13:32.881Z,14.40
2022-09-11T04:16:19.729Z,11.38
2022-09-11T04:18:47.662Z,11.73
2022-09-11T04:21:17.281Z,12.35
2022-09-11T04:23:45.527Z,15.18
2022-09-11T04:26:17.796Z,11.75
2022-09-11T04:28:45.121Z,13.00
2022-09-11T04:31:12.391Z,13.65
2022-09-11T04:33:39.792Z,12.32
2022-09-11T04:36:13.034Z,12.38
2022-09-11T04:38:43.537Z,13.00
2022-09-11T04:41:10.952Z,10.93
2022-09-11T04:43:40.623Z,11.25
2022-09-11T04:46:11.499Z,11.30
2022-09-11T04:48:47.355Z,11.77
2022-09-11T04:51:34.943Z,12.30
2022-09-11T04:54:02.624Z,12.18
2022-09-11T04:56:31.872Z,11.25
2022-09-11T04:59:01.705Z,14.85
2022-09-11T05:01:30.565Z,17.60
2022-09-11T05:03:57.867Z,11.18
2022-09-11T05:06:24.889Z,13.35
2022-09-11T05:08:51.720Z,12.60
2022-09-11T05:11:20.912Z,13.10
2022-09-11T05:13:48.571Z,12.40
2022-09-11T05:16:17.512Z,15.82
2022-09-11T05:18:51.858Z,11.82
2022-09-11T05:21:19.851Z,10.70
2022-09-11T05:23:51.995Z,13.82
2022-09-11T05:26:22.026Z,14.30
2022-09-11T05:28:54.141Z,10.52
2022-09-11T05:31:21.993Z,11.75
2022-09-11T05:33:49.341Z,10.65
2022-09-11T05:36:16.897Z,10.25
2022-09-11T05:38:44.483Z,10.55
2022-09-11T05:41:12.911Z,11.88
2022-09-11T05:43:40.751Z,14.95
2022-09-11T05:46:11.208Z,11.05
2022-09-11T05:48:38.592Z,9.98
2022-09-11T05:51:13.016Z,10.35
2022-09-11T05:53:41.208Z,11.80
2022-09-11T05:56:19.747Z,10.23
2022-09-11T05:58:48.004Z,9.55
2022-09-11T06:01:18.235Z,11.82
2022-09-11T06:03:47.417Z,10.18
2022-09-11T06:06:14.377Z,10.40
2022-09-11T06:08:44.987Z,8.30
2022-09-11T06:11:13.841Z,8.60
2022-09-11T06:13:46.346Z,7.68
2022-09-11T06:16:19.357Z,9.23
2022-09-11T06:18:50.111Z,8.10
2022-09-11T06:21:19.955Z,7.28
2022-09-11T06:23:48.105Z,7.78
2022-09-11T06:26:17.584Z,6.85
2022-09-11T06:28:44.620Z,10.85
2022-09-11T06:31:17.192Z,8.63
2022-09-11T06:33:44.204Z,8.93
2022-09-11T06:36:17.401Z,6.55
2022-09-11T06:38:44.961Z,7.70
2022-09-11T06:41:14.838Z,8.25
2022-09-11T06:43:42.562Z,5.18
2022-09-11T06:46:14.875Z,7.57
2022-09-11T06:48:43.041Z,6.32
2022-09-11T06:51:20.528Z,6.18
2022-09-11T06:53:47.511Z,7.13
2022-09-11T06:56:16.905Z,7.47
2022-09-11T06:58:45.270Z,6.82
2022-09-11T07:01:17.373Z,9.27
2022-09-11T07:03:46.079Z,8.02
2022-09-11T07:06:14.605Z,6.88
2022-09-11T07:08:41.724Z,6.07
2022-09-11T07:11:14.087Z,5.63
2022-09-11T07:13:41.977Z,4.70
2022-09-11T07:16:10.831Z,7.65
2022-09-11T07:18:43.440Z,6.45
2022-09-11T07:21:16.701Z,11.13
2022-09-11T07:23:48.161Z,7.10
2022-09-11T07:26:15.260Z,7.40
2022-09-11T07:28:42.325Z,9.88
2022-09-11T07:31:20.075Z,10.23
2022-09-11T07:33:49.048Z,6.22
2022-09-11T07:36:21.173Z,5.10
2022-09-11T07:38:49.982Z,11.02
2022-09-11T07:41:19.381Z,7.68
2022-09-11T07:43:46.530Z,7.00
2022-09-11T07:46:14.510Z,8.77
2022-09-11T07:48:43.125Z,13.07
2022-09-11T07:51:12.202Z,11.23
2022-09-11T07:53:59.449Z,10.70
2022-09-11T07:56:27.121Z,15.07
2022-09-11T07:58:55.672Z,11.02
2022-09-11T08:01:29.719Z,10.55
2022-09-11T08:03:59.570Z,12.68
2022-09-11T08:06:29.692Z,6.70
2022-09-11T08:08:58.767Z,8.30
2022-09-11T08:11:26.174Z,9.95
2022-09-11T08:13:55.046Z,7.25
2022-09-11T08:16:25.286Z,8.13
2022-09-11T08:18:52.545Z,10.10
2022-09-11T08:21:19.794Z,4.18
2022-09-11T08:23:47.246Z,5.25
2022-09-11T08:26:21.684Z,6.32
2022-09-11T08:31:22.117Z,8.75
2022-09-11T08:33:49.327Z,4.03
2022-09-11T08:36:16.581Z,6.10
2022-09-11T08:38:44.441Z,7.18
2022-09-11T08:41:12.944Z,6.50
2022-09-11T08:43:50.941Z,6.32
2022-09-11T08:46:21.132Z,9.55
2022-09-11T08:49:14.739Z,5.00
2022-09-11T08:51:42.440Z,8.82
2022-09-11T08:54:33.551Z,6.75
2022-09-11T08:57:35.404Z,4.80
2022-09-11T09:00:19.838Z,3.88
2022-09-11T09:03:06.645Z,5.45
2022-09-11T09:06:10.687Z,3.35
2022-09-11T09:08:53.162Z,3.65
2022-09-11T09:11:37.283Z,7.07
2022-09-11T09:14:34.269Z,4.30
2022-09-11T09:17:25.096Z,4.75
2022-09-11T09:20:11.195Z,3.25
2022-09-11T09:22:37.904Z,4.93
2022-09-11T09:25:16.728Z,1.98
2022-09-11T09:27:49.289Z,3.95
2022-09-11T09:30:18.863Z,3.55
2022-09-11T09:32:54.550Z,1.92
2022-09-11T09:35:39.407Z,2.65
2022-09-11T09:38:31.421Z,2.55
2022-09-11T09:41:07.294Z,1.80
2022-09-11T09:43:52.884Z,2.80
2022-09-11T09:46:42.246Z,5.65
2022-09-11T09:49:29.890Z,2.08
2022-09-11T09:52:03.521Z,2.58
2022-09-11T09:54:34.071Z,5.45
2022-09-11T09:57:04.539Z,3.95
2022-09-11T09:59:45.921Z,1.70
2022-09-11T10:02:12.980Z,2.55
2022-09-11T10:04:39.904Z,1.52
2022-09-11T10:07:19.989Z,2.42
2022-09-11T10:09:58.858Z,2.05
2022-09-11T10:12:27.950Z,1.27
2022-09-11T10:15:00.913Z,6.32
2022-09-11T10:17:31.969Z,3.90
2022-09-11T10:20:19.261Z,1.55
2022-09-11T10:22:46.770Z,1.58
2022-09-11T10:25:46.012Z,1.75
2022-09-11T10:28:17.394Z,2.50
2022-09-11T10:30:53.577Z,1.50
2022-09-11T10:33:31.676Z,2.53
2022-09-11T10:36:01.439Z,1.85
2022-09-11T10:38:31.292Z,1.38
2022-09-11T10:41:14.849Z,2.42
2022-09-11T10:44:10.202Z,1.15
2022-09-11T10:46:42.453Z,0.90
2022-09-11T10:49:22.883Z,2.33
2022-09-11T10:52:08.247Z,1.00
2022-09-11T10:54:46.989Z,3.38
2022-09-11T10:57:16.805Z,1.02
2022-09-11T11:00:09.696Z,1.23
2022-09-11T11:02:44.130Z,1.02
2022-09-11T11:05:27.127Z,0.95
2022-09-11T11:08:20.599Z,1.83
2022-09-11T11:10:56.313Z,1.17
2022-09-11T11:13:30.066Z,1.52
2022-09-11T11:16:25.152Z,0.93
2022-09-11T11:19:06.968Z,2.25
2022-09-11T11:22:09.056Z,1.05
2022-09-11T11:24:58.505Z,0.82
2022-09-11T11:28:03.109Z,2.53
2022-09-11T11:30:48.043Z,1.05
2022-09-11T11:33:47.382Z,1.95
2022-09-11T11:36:57.538Z,1.63
2022-09-11T11:39:38.875Z,3.90
2022-09-11T11:42:26.893Z,1.77
2022-09-11T11:45:14.396Z,2.58
2022-09-11T11:47:43.797Z,2.78
2022-09-11T11:50:10.797Z,2.63
2022-09-11T11:53:21.948Z,2.53
2022-09-11T11:55:48.722Z,1.65
2022-09-11T11:58:38.214Z,1.52
2022-09-11T12:01:11.502Z,0.93
2022-09-11T12:03:50.411Z,5.20
2022-09-11T12:06:17.369Z,0.40
2022-09-11T12:08:45.694Z,0.73
2022-09-11T12:11:16.548Z,0.55
2022-09-11T12:13:47.917Z,2.17
2022-09-11T12:16:29.067Z,2.50
2022-09-11T12:19:21.638Z,0.75
2022-09-11T12:21:54.676Z,1.50
2022-09-11T12:24:41.442Z,0.80
2022-09-11T12:27:34.562Z,4.13
2022-09-11T12:30:28.819Z,0.70
2022-09-11T12:32:59.025Z,0.80
2022-09-11T12:35:34.926Z,1.33
2022-09-11T12:38:25.786Z,1.02
2022-09-11T12:40:57.268Z,1.63
2022-09-11T12:43:31.351Z,3.08
2022-09-11T12:45:58.333Z,1.58
2022-09-11T12:48:41.735Z,2.03
2022-09-11T12:51:25.383Z,2.67
2022-09-11T12:53:55.302Z,2.25
2022-09-11T12:56:24.667Z,0.68
2022-09-11T12:59:04.694Z,0.47
2022-09-11T13:01:44.215Z,1.45
2022-09-11T13:04:10.981Z,1.05
2022-09-11T13:06:45.405Z,7.15
2022-09-11T13:09:25.214Z,0.80
2022-09-11T13:11:54.585Z,0.90
2022-09-11T13:14:30.622Z,2.83
2022-09-11T13:17:02.639Z,3.08
2022-09-11T13:19:34.656Z,1.52
2022-09-11T13:22:01.985Z,2.72
2022-09-11T13:24:35.665Z,1.27
2022-09-11T13:27:17.529Z,1.75
2022-09-11T13:29:48.464Z,1.45
2022-09-11T13:32:17.337Z,2.03
2022-09-11T13:34:47.505Z,1.08
2022-09-11T13:37:32.883Z,1.13
2022-09-11T13:40:00.959Z,0.65
2022-09-11T13:42:28.400Z,1.05
2022-09-11T13:44:57.846Z,1.92
2022-09-11T13:47:26.839Z,1.52
2022-09-11T13:49:58.338Z,1.48
2022-09-11T13:52:27.887Z,1.55
2022-09-11T13:54:57.833Z,4.13
2022-09-11T13:57:31.877Z,8.30
2022-09-11T14:00:00.362Z,6.60
2022-09-11T14:02:47.455Z,1.70
2022-09-11T14:05:28.258Z,2.38
2022-09-11T14:08:22.753Z,2.53
2022-09-11T14:10:55.491Z,4.50
2022-09-11T14:13:42.593Z,1.23
2022-09-11T14:16:16.866Z,9.85
2022-09-11T14:18:43.669Z,2.80
2022-09-11T14:21:16.752Z,1.88
2022-09-11T14:23:52.035Z,1.75
2022-09-11T14:26:24.153Z,4.35
2022-09-11T14:28:58.177Z,2.67
2022-09-11T14:31:39.725Z,1.38
2022-09-11T14:34:12.506Z,3.00
2022-09-11T14:36:42.128Z,1.15
2022-09-11T14:39:34.824Z,2.17
2022-09-11T14:42:02.713Z,1.90
2022-09-11T14:44:29.784Z,3.20
2022-09-11T14:46:57.658Z,2.13
2022-09-11T14:49:24.576Z,2.58
2022-09-11T14:52:01.498Z,1.27
2022-09-11T14:54:32.508Z,1.88
2022-09-11T14:57:00.247Z,1.30
2022-09-11T14:59:29.305Z,1.85
2022-09-11T15:01:58.544Z,2.28
2022-09-11T15:04:25.696Z,0.80
2022-09-11T15:06:55.411Z,1.17
2022-09-11T15:09:23.384Z,1.38
2022-09-11T15:11:52.369Z,1.65
2022-09-11T15:14:32.560Z,1.75
2022-09-11T15:17:08.196Z,1.13
2022-09-11T15:19:35.331Z,0.55
2022-09-11T15:22:02.308Z,2.92
2022-09-11T15:24:29.955Z,1.73
2022-09-11T15:26:57.056Z,0.60
2022-09-11T15:29:29.400Z,1.75
2022-09-11T15:31:58.627Z,1.73
2022-09-11T15:34:26.296Z,1.33
2022-09-11T15:36:53.066Z,0.93
2022-09-11T15:39:21.473Z,0.70
2022-09-11T15:41:48.412Z,2.10
2022-09-11T15:44:20.931Z,1.60
2022-09-11T15:46:52.892Z,1.50
2022-09-11T15:49:21.719Z,3.55
2022-09-11T15:51:49.859Z,2.63
2022-09-11T15:54:16.929Z,1.52
2022-09-11T15:56:44.699Z,1.40
2022-09-11T15:59:12.628Z,0.80
2022-09-11T16:01:40.184Z,1.20
2022-09-11T16:04:10.206Z,2.85
2022-09-11T16:06:39.684Z,3.20
2022-09-11T16:09:09.561Z,1.63
2022-09-11T16:11:36.665Z,0.75
2022-09-11T16:14:03.995Z,1.38
2022-09-11T16:16:30.942Z,1.25
2022-09-11T16:18:58.592Z,1.42
2022-09-11T16:21:27.196Z,1.67
2022-09-11T16:23:59.200Z,0.90
2022-09-11T16:26:29.186Z,2.25
2022-09-11T16:28:56.164Z,0.88
2022-09-11T16:31:23.066Z,0.90
2022-09-11T16:33:50.003Z,1.05
2022-09-11T16:36:19.399Z,2.05
2022-09-11T16:38:47.948Z,1.75
2022-09-11T16:41:18.815Z,0.98
2022-09-11T16:43:51.116Z,1.80
2022-09-11T16:46:22.175Z,0.80
2022-09-11T16:48:53.959Z,0.90
2022-09-11T16:51:23.564Z,0.85
2022-09-11T16:53:51.010Z,1.52
2022-09-11T16:56:20.987Z,0.80
2022-09-11T16:58:48.488Z,0.50
2022-09-11T17:01:18.023Z,1.10
2022-09-11T17:03:47.894Z,0.55
2022-09-11T17:06:16.414Z,0.75
2022-09-11T17:08:44.750Z,1.13
2022-09-11T17:11:16.387Z,2.00
2022-09-11T17:13:44.088Z,0.73
2022-09-11T17:16:16.447Z,1.85
2022-09-11T17:18:53.852Z,2.45
2022-09-11T17:21:26.104Z,3.35
2022-09-11T17:23:57.479Z,1.45
2022-09-11T17:26:25.020Z,0.75
2022-09-11T17:28:52.593Z,1.02
2022-09-11T17:31:20.242Z,1.95
2022-09-11T17:33:48.629Z,2.22
2022-09-11T17:36:18.779Z,1.42
2022-09-11T17:38:48.307Z,1.55
2022-09-11T17:41:16.371Z,2.50
2022-09-11T17:43:43.316Z,2.30
2022-09-11T17:46:16.975Z,2.58
2022-09-11T17:48:44.525Z,3.90
2022-09-11T17:51:16.573Z,1.60
2022-09-11T17:53:46.796Z,1.27
2022-09-11T17:56:17.358Z,1.40
2022-09-11T17:58:45.168Z,2.28
2022-09-11T18:01:16.815Z,1.55
2022-09-11T18:03:49.191Z,1.98
2022-09-11T18:06:25.385Z,2.45
2022-09-11T18:08:53.007Z,1.92
2022-09-11T18:11:19.927Z,1.10
2022-09-11T18:13:46.877Z,1.23
2022-09-11T18:16:13.768Z,1.95
2022-09-11T18:18:40.733Z,2.58
2022-09-11T18:21:10.135Z,1.33
2022-09-11T18:23:39.764Z,2.00
2022-09-11T18:26:07.326Z,1.48
2022-09-11T18:28:34.467Z,1.17
2022-09-11T18:31:05.265Z,1.35
2022-09-11T18:33:32.642Z,1.83
2022-09-11T18:36:11.995Z,4.95
2022-09-11T18:38:38.803Z,4.13
2022-09-11T18:41:06.008Z,2.45
2022-09-11T18:43:32.815Z,2.30
2022-09-11T18:46:03.547Z,2.25
2022-09-11T18:48:30.548Z,2.38
2022-09-11T18:51:00.055Z,3.03
2022-09-11T18:53:27.118Z,2.03
2022-09-11T18:56:01.775Z,6.22
2022-09-11T18:58:33.361Z,2.28
2022-09-11T19:01:05.258Z,2.38
2022-09-11T19:03:32.181Z,2.70
2022-09-11T19:06:08.885Z,3.47
2022-09-11T19:08:37.436Z,2.30
2022-09-11T19:11:32.000Z,2.03
2022-09-11T19:14:06.863Z,2.20
2022-09-11T19:16:34.403Z,3.53
2022-09-11T19:19:02.097Z,2.13
2022-09-11T19:21:29.254Z,2.58
2022-09-11T19:23:59.542Z,2.35
2022-09-11T19:26:43.414Z,2.97
2022-09-11T19:29:11.209Z,2.08
2022-09-11T19:31:39.322Z,1.75
2022-09-11T19:34:07.845Z,2.05
2022-09-11T19:36:36.402Z,2.00
2022-09-11T19:39:05.137Z,1.50
2022-09-11T19:41:33.983Z,2.53
2022-09-11T19:44:02.479Z,2.50
2022-09-11T19:46:31.659Z,2.47
2022-09-11T19:49:01.892Z,2.47
2022-09-11T19:51:31.716Z,3.47
2022-09-11T19:54:00.563Z,3.10
2022-09-11T19:56:28.791Z,2.70
2022-09-11T19:58:55.993Z,1.73
2022-09-11T20:01:25.187Z,3.22
2022-09-11T20:03:53.462Z,3.35
2022-09-11T20:06:23.143Z,4.97
2022-09-11T20:09:02.939Z,2.40
2022-09-11T20:11:38.311Z,3.50
2022-09-11T20:14:05.392Z,3.22
2022-09-11T20:16:32.695Z,4.13
2022-09-11T20:19:06.177Z,6.55
2022-09-11T20:21:35.356Z,5.65
2022-09-11T20:24:02.916Z,6.22
2022-09-11T20:26:30.851Z,2.50
2022-09-11T20:29:04.381Z,3.60
2022-09-11T20:31:36.926Z,3.53
2022-09-11T20:34:07.647Z,2.67
2022-09-11T20:36:34.529Z,5.60
2022-09-11T20:39:01.390Z,4.15
2022-09-11T20:41:30.108Z,3.95
2022-09-11T20:43:58.196Z,5.03
2022-09-11T20:46:25.684Z,3.47
2022-09-11T20:48:53.237Z,3.97
2022-09-11T20:51:22.743Z,3.92
2022-09-11T20:53:49.991Z,3.50
2022-09-11T20:56:20.458Z,6.50
2022-09-11T20:58:47.799Z,4.82
2022-09-11T21:01:21.423Z,3.42
2022-09-11T21:03:56.619Z,4.30
2022-09-11T21:06:26.686Z,4.95
2022-09-11T21:08:59.502Z,3.25
2022-09-11T21:11:28.297Z,3.78
2022-09-11T21:13:55.068Z,4.07
2022-09-11T21:16:22.429Z,3.10
2022-09-11T21:18:54.769Z,4.13
2022-09-11T21:21:22.655Z,4.22
2022-09-11T21:23:50.027Z,3.55
2022-09-11T21:26:17.546Z,4.85
2022-09-11T21:28:44.689Z,3.30
2022-09-11T21:31:12.161Z,3.50
2022-09-11T21:33:39.420Z,4.68
2022-09-11T21:36:06.792Z,2.38
2022-09-11T21:38:33.776Z,6.85
2022-09-11T21:41:04.259Z,3.30
2022-09-11T21:43:31.226Z,2.38
2022-09-11T21:45:58.085Z,3.67
2022-09-11T21:48:25.365Z,2.83
2022-09-11T21:50:52.652Z,4.40
2022-09-11T21:53:20.218Z,2.95
2022-09-11T21:55:48.681Z,4.07
2022-09-11T21:58:18.550Z,6.25
2022-09-11T22:00:46.102Z,3.83
2022-09-11T22:03:13.753Z,5.50
2022-09-11T22:05:43.296Z,4.10
2022-09-11T22:08:15.623Z,5.00
2022-09-11T22:10:48.327Z,3.65
2022-09-11T22:13:16.495Z,3.85
2022-09-11T22:15:45.729Z,3.22
2022-09-11T22:18:13.145Z,7.13
2022-09-11T22:20:41.367Z,8.13
2022-09-11T22:23:12.382Z,4.63
2022-09-11T22:25:40.240Z,4.85
2022-09-11T22:28:07.765Z,5.00
2022-09-11T22:30:34.563Z,5.45
2022-09-11T22:33:01.844Z,3.60
2022-09-11T22:35:28.902Z,4.18
2022-09-11T22:37:55.846Z,5.38
2022-09-11T22:40:22.712Z,4.47
2022-09-11T22:42:49.960Z,3.78
2022-09-11T22:45:17.076Z,5.00
2022-09-11T22:47:43.811Z,4.15
2022-09-11T22:50:10.850Z,3.72
2022-09-11T22:52:37.705Z,4.65
2022-09-11T22:55:05.762Z,4.03
2022-09-11T22:57:35.045Z,6.07
2022-09-11T23:00:04.397Z,4.50
2022-09-11T23:02:31.160Z,4.38
2022-09-11T23:05:18.226Z,4.78
2022-09-11T23:07:49.125Z,6.15
2022-09-11T23:10:16.685Z,5.22
2022-09-11T23:12:44.412Z,6.72
2022-09-11T23:15:11.573Z,6.65
2022-09-11T23:17:38.430Z,8.38
2022-09-11T23:20:05.844Z,4.97
2022-09-11T23:22:32.646Z,8.70
2022-09-11T23:24:59.575Z,9.02
2022-09-11T23:27:26.359Z,7.07
2022-09-11T23:29:53.156Z,5.75
2022-09-11T23:32:20.020Z,6.90
2022-09-11T23:34:46.816Z,6.40
2022-09-11T23:37:13.664Z,6.03
2022-09-11T23:39:40.525Z,9.05
2022-09-11T23:42:07.483Z,7.25
2022-09-11T23:44:34.341Z,6.78
2022-09-11T23:47:02.185Z,7.05
2022-09-11T23:49:35.987Z,8.85
2022-09-11T23:52:04.159Z,9.70
2022-09-11T23:54:30.905Z,7.53
2022-09-11T23:56:58.083Z,7.90
2022-09-11T23:59:25.096Z,8.68
